Time;durP1;ratioP1;P1;durP2;ratioP2;P2;SDS_P1;SDS_P2;PMS_P1;PMS_P2;Temp;Humidity;BMP_temperature;BMP_pressure;BME280_temperature;BME280_humidity;BME280_pressure;Samples;Min_cycle;Max_cycle;Signal;HPM_P1;HPM_P2
2022/01/10 00:02:13;;;;;;;39.42;23.25;;;;;;;0.82;100.00;98830.44;5092439;28;20279;-81
2022/01/10 00:04:39;;;;;;;40.30;22.25;;;;;;;0.84;100.00;98828.63;5091839;28;20291;-81
2022/01/10 00:07:06;;;;;;;40.45;22.85;;;;;;;0.88;100.00;98830.22;5092160;28;20194;-81
2022/01/10 00:09:33;;;;;;;39.72;21.63;;;;;;;1.08;100.00;98826.97;5091509;28;20248;-81
2022/01/10 00:11:59;;;;;;;44.17;23.02;;;;;;;0.97;100.00;98835.28;5090400;28;20286;-81
2022/01/10 00:14:26;;;;;;;36.55;20.40;;;;;;;0.92;100.00;98831.03;5092976;28;20663;-81
2022/01/10 00:16:53;;;;;;;31.65;19.73;;;;;;;1.15;100.00;98835.59;5085413;28;20575;-81
2022/01/10 00:19:21;;;;;;;32.92;19.75;;;;;;;1.45;100.00;98845.22;5092125;28;20272;-81
2022/01/10 00:21:48;;;;;;;33.80;21.27;;;;;;;1.20;100.00;98842.50;5092360;28;20197;-79
2022/01/10 00:24:15;;;;;;;36.40;19.15;;;;;;;1.02;100.00;98845.72;5091818;28;20225;-81
2022/01/10 00:26:41;;;;;;;30.40;19.63;;;;;;;1.23;100.00;98846.81;5091958;28;20179;-81
2022/01/10 00:29:08;;;;;;;32.85;19.58;;;;;;;1.69;100.00;98853.25;5092253;28;20617;-82
2022/01/10 00:31:35;;;;;;;42.55;18.50;;;;;;;1.53;100.00;98849.38;5091811;28;20244;-78
2022/01/10 00:34:01;;;;;;;37.67;20.20;;;;;;;1.57;100.00;98857.19;5091981;28;20187;-81
2022/01/10 00:36:29;;;;;;;33.30;19.40;;;;;;;1.65;100.00;98857.81;5091991;28;20193;-80
2022/01/10 00:38:56;;;;;;;41.40;21.65;;;;;;;1.97;100.00;98860.28;5091539;28;20205;-80
2022/01/10 00:41:23;;;;;;;44.95;19.17;;;;;;;1.78;100.00;98857.38;5090887;28;20271;-80
2022/01/10 00:43:51;;;;;;;41.58;19.17;;;;;;;1.59;100.00;98860.66;5091765;28;20232;-80
2022/01/10 00:46:18;;;;;;;42.65;19.23;;;;;;;1.31;100.00;98859.81;5091987;28;20242;-80
2022/01/10 00:48:47;;;;;;;40.90;19.02;;;;;;;1.16;100.00;98863.84;5087340;28;20310;-81
2022/01/10 00:51:14;;;;;;;39.90;18.70;;;;;;;1.30;100.00;98874.03;5079498;28;20224;-81
2022/01/10 00:53:43;;;;;;;42.67;18.63;;;;;;;1.19;100.00;98882.31;5079764;28;20221;-80
2022/01/10 00:56:10;;;;;;;46.13;19.60;;;;;;;1.03;100.00;98882.78;5087361;28;20206;-81
2022/01/10 00:58:37;;;;;;;36.65;18.02;;;;;;;1.21;100.00;98889.28;5082371;28;20688;-81
2022/01/10 01:01:04;;;;;;;32.45;18.80;;;;;;;1.48;100.00;98891.13;5084659;28;20192;-81
2022/01/10 01:03:31;;;;;;;35.35;17.52;;;;;;;1.59;100.00;98895.16;5093048;28;20188;-81
2022/01/10 01:05:58;;;;;;;44.40;19.23;;;;;;;1.36;100.00;98898.56;5081253;28;20253;-80
2022/01/10 01:08:26;;;;;;;42.80;17.80;;;;;;;1.18;100.00;98891.19;5083447;28;20238;-81
2022/01/10 01:11:23;;;;;;;34.75;17.55;;;;;;;1.30;100.00;98895.25;5082918;28;20651;-80
2022/01/10 01:13:52;;;;;;;41.33;16.42;;;;;;;1.54;100.00;98901.53;5075502;28;20218;-80
2022/01/10 01:16:31;;;;;;;42.35;19.23;;;;;;;1.43;100.00;98901.91;5091152;28;20200;-80
2022/01/10 01:19:50;;;;;;;51.78;18.42;;;;;;;1.43;100.00;98908.06;5075668;28;20207;-80
2022/01/10 01:24:42;;;;;;;33.38;18.13;;;;;;;1.87;100.00;98916.31;5077052;28;20293;-80
2022/01/10 01:27:10;;;;;;;58.50;19.80;;;;;;;1.84;100.00;98920.91;5082847;28;20296;-79
2022/01/10 01:29:36;;;;;;;52.47;17.15;;;;;;;1.70;100.00;98929.31;5085810;28;20320;-80
2022/01/10 01:32:04;;;;;;;47.47;16.83;;;;;;;1.91;100.00;98940.13;5091418;28;20559;-80
2022/01/10 01:34:30;;;;;;;31.98;16.42;;;;;;;1.91;100.00;98940.13;5079700;28;20266;-81
2022/01/10 01:36:57;;;;;;;25.80;14.82;;;;;;;1.90;100.00;98946.34;5086571;28;20667;-80
2022/01/10 01:39:26;;;;;;;41.17;15.38;;;;;;;1.96;100.00;98951.47;5082626;28;20259;-79
2022/01/10 01:41:56;;;;;;;31.25;15.23;;;;;;;1.94;100.00;98967.44;5082050;28;20205;-80
2022/01/10 01:44:24;;;;;;;33.80;15.20;;;;;;;2.05;100.00;98969.75;5074332;28;20276;-80
2022/01/10 01:46:51;;;;;;;32.45;15.32;;;;;;;2.08;100.00;98967.88;5082188;28;20277;-81
2022/01/10 01:49:18;;;;;;;25.48;13.70;;;;;;;2.17;100.00;98963.13;5092150;28;20251;-80
2022/01/10 01:51:45;;;;;;;52.85;15.85;;;;;;;2.29;100.00;98974.22;5094272;28;20192;-80
2022/01/10 01:54:12;;;;;;;38.67;15.45;;;;;;;1.81;100.00;98966.09;5093150;28;20196;-80
2022/01/10 01:56:40;;;;;;;45.55;15.43;;;;;;;1.47;100.00;98980.47;5094561;28;20192;-80
2022/01/10 01:59:09;;;;;;;27.50;12.93;;;;;;;1.49;100.00;98975.97;5094923;28;20218;-80
2022/01/10 02:01:37;;;;;;;40.80;14.60;;;;;;;1.66;100.00;98983.41;5094102;28;20203;-81
2022/01/10 02:04:04;;;;;;;40.42;14.98;;;;;;;1.64;100.00;98990.53;5093139;28;20279;-80
2022/01/10 02:06:31;;;;;;;24.58;14.73;;;;;;;1.70;100.00;98985.06;5094082;28;20283;-81
2022/01/10 02:08:57;;;;;;;43.88;16.40;;;;;;;1.45;100.00;98985.81;5093956;28;20196;-80
2022/01/10 02:11:24;;;;;;;54.35;15.43;;;;;;;1.24;100.00;98997.06;5088340;28;20198;-80
2022/01/10 02:13:51;;;;;;;47.33;15.13;;;;;;;1.23;100.00;98995.34;5090023;28;20192;-81
2022/01/10 02:16:22;;;;;;;29.88;13.75;;;;;;;1.48;100.00;99002.56;5086248;28;20196;-80
2022/01/10 02:18:50;;;;;;;49.72;15.40;;;;;;;1.44;100.00;99012.38;5093736;28;20225;-80
2022/01/10 02:21:18;;;;;;;42.15;15.07;;;;;;;1.32;100.00;99010.13;5088527;28;20652;-80
2022/01/10 02:23:45;;;;;;;43.50;15.23;;;;;;;1.37;100.00;99014.34;5089491;28;20625;-81
2022/01/10 02:26:13;;;;;;;35.60;14.00;;;;;;;1.24;100.00;99008.56;5093819;28;20203;-80
2022/01/10 02:28:41;;;;;;;43.53;15.50;;;;;;;1.19;100.00;99007.81;5093479;28;20211;-80
2022/01/10 02:31:08;;;;;;;42.25;15.00;;;;;;;1.09;100.00;99009.00;5093290;28;20253;-80
2022/01/10 02:33:35;;;;;;;35.45;14.65;;;;;;;1.41;100.00;99023.09;5093821;28;20239;-80
2022/01/10 02:36:12;;;;;;;44.35;16.08;;;;;;;1.50;100.00;99024.59;5093243;28;20829;-80
2022/01/10 02:38:46;;;;;;;29.77;12.10;;;;;;;1.57;100.00;99026.16;5092626;28;20235;-80
2022/01/10 02:41:20;;;;;;;48.42;13.70;;;;;;;1.21;100.00;99029.00;5084846;28;20188;-80
2022/01/10 02:43:47;;;;;;;45.33;13.48;;;;;;;0.99;100.00;99048.16;5089678;28;20196;-80
2022/01/10 02:46:14;;;;;;;25.85;14.00;;;;;;;0.94;100.00;99046.56;5090562;28;20203;-81
2022/01/10 02:48:41;;;;;;;26.67;13.55;;;;;;;1.18;100.00;99045.88;5092220;28;20231;-80
2022/01/10 02:51:07;;;;;;;33.53;13.07;;;;;;;1.30;100.00;99039.31;5085860;28;20187;-80
2022/01/10 02:53:34;;;;;;;36.97;12.40;;;;;;;1.13;100.00;99046.88;5092298;28;20196;-80
2022/01/10 02:56:02;;;;;;;26.85;13.05;;;;;;;1.40;100.00;99048.75;5092730;28;20204;-80
2022/01/10 02:58:29;;;;;;;28.25;12.73;;;;;;;1.57;100.00;99044.72;5091885;28;20197;-81
2022/01/10 03:00:56;;;;;;;35.30;12.57;;;;;;;1.21;100.00;99050.19;5092046;28;20665;-81
2022/01/10 03:03:22;;;;;;;33.67;12.60;;;;;;;1.39;100.00;99054.09;5092652;28;20187;-81
2022/01/10 03:05:49;;;;;;;18.85;11.60;;;;;;;1.45;100.00;99064.53;5092340;28;20232;-80
2022/01/10 03:08:16;;;;;;;29.80;12.43;;;;;;;1.43;100.00;99061.94;5092685;28;20219;-80
2022/01/10 03:10:42;;;;;;;23.70;10.88;;;;;;;1.24;100.00;99077.53;5092060;28;20220;-80
2022/01/10 03:13:10;;;;;;;32.70;12.98;;;;;;;1.30;100.00;99075.59;5089308;28;20284;-80
2022/01/10 03:15:37;;;;;;;21.77;12.68;;;;;;;1.28;100.00;99085.38;5091219;28;20199;-80
2022/01/10 03:18:04;;;;;;;24.83;11.98;;;;;;;1.46;100.00;99079.53;5092569;28;20184;-80
2022/01/10 03:20:30;;;;;;;20.00;10.38;;;;;;;1.51;100.00;99085.56;5091979;28;20743;-80
2022/01/10 03:22:57;;;;;;;21.38;10.27;;;;;;;1.54;100.00;99079.28;5091969;28;20203;-80
2022/01/10 03:25:23;;;;;;;22.70;10.60;;;;;;;1.32;100.00;99082.59;5091749;28;20216;-80
2022/01/10 03:27:50;;;;;;;21.25;11.93;;;;;;;1.42;100.00;99093.78;5091493;28;20216;-80
2022/01/10 03:30:18;;;;;;;21.17;11.65;;;;;;;1.56;100.00;99094.28;5092391;28;20279;-80
2022/01/10 03:32:47;;;;;;;22.67;10.23;;;;;;;1.81;100.00;99090.84;5091783;28;20196;-81
2022/01/10 03:35:14;;;;;;;19.00;10.40;;;;;;;1.94;100.00;99100.19;5091485;28;20193;-80
2022/01/10 03:37:41;;;;;;;19.85;10.32;;;;;;;1.92;100.00;99102.03;5091925;28;20197;-80
2022/01/10 03:40:09;;;;;;;18.67;11.27;;;;;;;1.88;100.00;99097.75;5092210;28;20213;-81
2022/01/10 03:42:36;;;;;;;24.42;9.05;;;;;;;2.09;100.00;99104.16;5084917;28;20642;-81
2022/01/10 03:45:04;;;;;;;21.00;10.02;;;;;;;2.08;100.00;99113.03;5091776;28;20236;-80
2022/01/10 03:47:32;;;;;;;32.17;10.45;;;;;;;1.77;100.00;99118.44;5091714;28;21098;-80
2022/01/10 03:49:59;;;;;;;18.20;11.00;;;;;;;1.69;100.00;99118.66;5092248;28;20185;-79
2022/01/10 03:52:27;;;;;;;23.95;10.75;;;;;;;1.56;100.00;99119.94;5091513;28;20212;-80
2022/01/10 03:54:54;;;;;;;20.02;10.85;;;;;;;1.46;100.00;99128.16;5091750;28;20208;-80
2022/01/10 03:57:21;;;;;;;18.25;11.27;;;;;;;1.25;100.00;99136.72;5091197;28;20203;-80
2022/01/10 03:59:47;;;;;;;26.05;12.20;;;;;;;1.24;100.00;99135.88;5091396;28;20223;-80
2022/01/10 04:02:14;;;;;;;46.08;12.23;;;;;;;1.44;100.00;99145.91;5091444;28;20191;-79
2022/01/10 04:04:42;;;;;;;19.83;10.40;;;;;;;1.30;100.00;99150.72;5091652;28;20223;-80
2022/01/10 04:07:09;;;;;;;29.40;11.35;;;;;;;1.44;100.00;99153.84;5091573;28;20611;-80
2022/01/10 04:09:35;;;;;;;20.35;10.93;;;;;;;1.73;100.00;99146.00;5090951;28;20284;-80
2022/01/10 04:12:02;;;;;;;21.02;10.30;;;;;;;1.45;100.00;99152.09;5090166;28;20300;-80
2022/01/10 04:14:29;;;;;;;26.98;11.50;;;;;;;1.33;100.00;99155.94;5091248;28;20238;-80
2022/01/10 04:16:55;;;;;;;21.67;11.27;;;;;;;1.48;100.00;99162.59;5090422;28;20231;-80
2022/01/10 04:19:22;;;;;;;18.88;10.73;;;;;;;1.33;100.00;99160.38;5091665;28;20215;-81
2022/01/10 04:21:50;;;;;;;25.05;10.75;;;;;;;1.15;100.00;99162.59;5091975;28;20966;-81
2022/01/10 04:24:17;;;;;;;35.78;11.95;;;;;;;1.23;100.00;99167.72;5091211;28;20193;-79
2022/01/10 04:26:43;;;;;;;23.92;11.40;;;;;;;1.48;100.00;99175.88;5091495;28;20195;-80
2022/01/10 04:29:10;;;;;;;35.58;11.93;;;;;;;1.69;100.00;99179.69;5091744;28;20286;-80
2022/01/10 04:31:37;;;;;;;25.60;11.50;;;;;;;1.48;100.00;99183.84;5084057;28;20303;-80
2022/01/10 04:34:04;;;;;;;30.95;11.65;;;;;;;1.42;100.00;99200.78;5092149;28;20193;-79
2022/01/10 04:36:31;;;;;;;30.27;11.20;;;;;;;1.41;100.00;99199.06;5092998;28;20245;-80
2022/01/10 04:38:59;;;;;;;24.13;11.20;;;;;;;1.50;100.00;99200.59;5094877;28;20866;-80
2022/01/10 04:41:26;;;;;;;24.45;12.70;;;;;;;1.36;100.00;99200.97;5094044;28;20633;-81
2022/01/10 04:43:52;;;;;;;39.35;12.85;;;;;;;1.08;100.00;99203.47;5092205;28;20286;-81
2022/01/10 04:46:19;;;;;;;33.38;12.32;;;;;;;1.25;100.00;99213.66;5094920;28;20202;-80
2022/01/10 04:48:46;;;;;;;31.25;14.15;;;;;;;1.01;100.00;99218.66;5096395;28;20256;-81
2022/01/10 04:51:14;;;;;;;27.92;11.68;;;;;;;1.18;100.00;99220.03;5095789;28;20232;-80
2022/01/10 04:53:43;;;;;;;65.55;13.63;;;;;;;1.28;100.00;99228.59;5095896;28;20656;-80
2022/01/10 04:56:12;;;;;;;22.50;11.75;;;;;;;1.17;100.00;99228.88;5094709;28;20298;-80
2022/01/10 04:58:39;;;;;;;31.67;12.75;;;;;;;1.11;100.00;99229.91;5095430;28;20618;-80
2022/01/10 05:01:07;;;;;;;27.42;11.60;;;;;;;1.40;100.00;99234.47;5096610;28;20658;-80
2022/01/10 05:03:34;;;;;;;38.35;12.18;;;;;;;1.38;100.00;99241.59;5088261;28;20237;-80
2022/01/10 05:06:00;;;;;;;27.90;13.40;;;;;;;1.39;100.00;99247.75;5096356;28;20701;-81
2022/01/10 05:08:27;;;;;;;36.60;12.73;;;;;;;1.31;100.00;99250.63;5096327;28;20210;-81
2022/01/10 05:10:54;;;;;;;36.47;12.48;;;;;;;1.24;100.00;99247.25;5096422;28;20608;-81
2022/01/10 05:13:23;;;;;;;46.97;12.88;;;;;;;1.04;100.00;99249.53;5085258;28;20236;-81
2022/01/10 05:15:50;;;;;;;59.75;12.25;;;;;;;0.90;100.00;99255.16;5075568;28;20188;-80
2022/01/10 05:18:20;;;;;;;55.72;13.05;;;;;;;0.59;100.00;99253.25;5075052;28;20263;-81
2022/01/10 05:20:47;;;;;;;46.75;13.20;;;;;;;0.59;100.00;99263.84;5075779;28;20207;-80
2022/01/10 05:23:14;;;;;;;41.28;11.77;;;;;;;0.68;100.00;99269.84;5075602;28;20192;-80
2022/01/10 05:25:41;;;;;;;50.88;13.45;;;;;;;0.94;100.00;99272.75;5075015;28;20205;-80
2022/01/10 05:28:10;;;;;;;46.30;12.48;;;;;;;1.01;100.00;99281.41;5075797;28;20689;-80
2022/01/10 05:30:39;;;;;;;53.60;13.60;;;;;;;0.88;100.00;99282.63;5075500;28;20296;-82
2022/01/10 05:33:08;;;;;;;44.17;11.60;;;;;;;0.67;100.00;99276.06;5087638;28;20357;-80
2022/01/10 05:35:35;;;;;;;39.33;11.75;;;;;;;0.57;100.00;99292.16;5095435;28;20297;-81
2022/01/10 05:38:02;;;;;;;34.03;11.52;;;;;;;0.51;100.00;99299.38;5095545;28;20223;-79
2022/01/10 05:40:29;;;;;;;41.50;11.57;;;;;;;0.41;100.00;99307.53;5095303;28;20672;-80
2022/01/10 05:42:56;;;;;;;40.83;12.95;;;;;;;0.38;100.00;99304.06;5079669;28;20292;-79
2022/01/10 05:45:23;;;;;;;28.83;11.52;;;;;;;0.44;100.00;99306.59;5075550;28;20200;-81
2022/01/10 05:47:51;;;;;;;37.67;10.77;;;;;;;0.37;100.00;99310.28;5075267;28;20310;-79
2022/01/10 05:50:31;;;;;;;42.03;12.45;;;;;;;0.40;100.00;99316.34;5075091;28;20219;-82
2022/01/10 05:52:58;;;;;;;25.73;12.32;;;;;;;0.65;100.00;99322.91;5075671;28;20207;-79
2022/01/10 05:55:24;;;;;;;27.95;11.38;;;;;;;0.68;100.00;99328.13;5075498;28;20660;-80
2022/01/10 05:57:51;;;;;;;36.15;11.07;;;;;;;0.68;100.00;99339.63;5075589;28;20213;-79
2022/01/10 06:00:24;;;;;;;37.42;11.80;;;;;;;0.49;100.00;99341.78;5075444;28;20586;-81
2022/01/10 06:02:52;;;;;;;34.15;11.52;;;;;;;0.20;100.00;99345.94;5095836;28;20648;-78
2022/01/10 06:05:19;;;;;;;36.08;11.55;;;;;;;0.29;100.00;99357.22;5124300;28;20241;-78
2022/01/10 06:07:46;;;;;;;35.28;12.30;;;;;;;0.41;100.00;99360.50;5108606;28;20246;-80
2022/01/10 06:10:13;;;;;;;29.95;10.88;;;;;;;0.36;100.00;99356.19;5100030;28;20291;-79
2022/01/10 06:12:40;;;;;;;27.08;10.82;;;;;;;0.41;100.00;99364.94;5094321;28;20215;-76
2022/01/10 06:15:08;;;;;;;30.95;11.30;;;;;;;0.65;100.00;99376.78;5105473;28;20202;-76
2022/01/10 06:17:34;;;;;;;24.58;11.13;;;;;;;0.55;100.00;99375.25;5105164;28;20187;-78
2022/01/10 06:20:04;;;;;;;31.25;11.68;;;;;;;0.69;100.00;99377.59;5107125;28;20290;-78
2022/01/10 06:22:31;;;;;;;20.83;11.05;;;;;;;0.79;100.00;99387.06;5098410;28;20207;-78
2022/01/10 06:24:58;;;;;;;30.55;11.45;;;;;;;0.65;100.00;99392.66;5101273;28;20214;-80
2022/01/10 06:27:25;;;;;;;33.85;9.65;;;;;;;0.61;100.00;99397.19;5101349;28;20202;-80
2022/01/10 06:29:54;;;;;;;19.33;9.50;;;;;;;0.67;100.00;99406.75;5105934;28;20198;-81
2022/01/10 06:32:21;;;;;;;17.67;10.95;;;;;;;0.70;100.00;99417.31;5103802;28;20239;-78
2022/01/10 06:34:48;;;;;;;18.20;10.98;;;;;;;0.95;100.00;99409.72;5108752;28;20189;-79
2022/01/10 06:37:16;;;;;;;22.17;11.35;;;;;;;1.07;100.00;99423.59;5098082;28;20338;-80
2022/01/10 06:39:43;;;;;;;41.47;13.43;;;;;;;0.85;100.00;99432.00;5111086;28;20310;-79
2022/01/10 06:42:10;;;;;;;32.60;16.45;;;;;;;0.72;100.00;99427.88;5115490;28;20198;-78
2022/01/10 06:44:37;;;;;;;28.63;14.35;;;;;;;0.82;100.00;99440.03;5088862;28;20277;-78
2022/01/10 06:47:04;;;;;;;29.75;15.95;;;;;;;1.02;100.00;99437.84;5115059;28;20616;-77
2022/01/10 06:49:31;;;;;;;33.85;15.80;;;;;;;1.25;100.00;99449.72;5114454;28;20230;-77
2022/01/10 06:51:58;;;;;;;46.40;13.88;;;;;;;1.13;100.00;99452.63;5114528;28;20203;-77
2022/01/10 06:54:26;;;;;;;46.80;14.55;;;;;;;0.79;100.00;99450.69;5114136;28;20256;-76
2022/01/10 06:56:58;;;;;;;58.05;14.57;;;;;;;0.96;100.00;99458.31;5114585;28;20183;-77
2022/01/10 06:59:25;;;;;;;36.30;15.02;;;;;;;0.96;100.00;99459.16;5113872;28;20219;-77
2022/01/10 07:01:52;;;;;;;19.55;11.90;;;;;;;1.25;100.00;99470.94;5111727;28;20664;-77
2022/01/10 07:04:19;;;;;;;29.05;14.25;;;;;;;1.11;100.00;99481.84;5113323;28;20202;-76
2022/01/10 07:06:46;;;;;;;37.92;13.75;;;;;;;0.96;100.00;99483.03;5113790;28;20223;-76
2022/01/10 07:09:13;;;;;;;28.45;14.15;;;;;;;0.95;100.00;99483.94;5114259;28;20207;-76
2022/01/10 07:11:41;;;;;;;27.50;13.52;;;;;;;0.96;100.00;99487.47;5111341;27;20268;-77
2022/01/10 07:14:08;;;;;;;24.20;13.50;;;;;;;1.14;100.00;99495.03;5114155;28;20234;-76
2022/01/10 07:16:35;;;;;;;22.45;13.43;;;;;;;1.37;100.00;99506.91;5113814;28;20267;-76
2022/01/10 07:19:02;;;;;;;25.25;12.80;;;;;;;1.11;100.00;99507.47;5113619;28;20226;-76
2022/01/10 07:21:29;;;;;;;25.55;12.95;;;;;;;0.85;100.00;99508.88;5113758;28;20676;-77
2022/01/10 07:23:55;;;;;;;23.02;13.25;;;;;;;0.90;100.00;99520.25;5113687;28;20201;-77
2022/01/10 07:26:22;;;;;;;28.23;13.75;;;;;;;0.75;100.00;99512.63;5113623;28;20249;-78
2022/01/10 07:28:56;;;;;;;23.77;13.20;;;;;;;0.96;100.00;99528.09;5113607;28;20532;-79
2022/01/10 07:31:24;;;;;;;24.40;12.85;;;;;;;0.72;100.00;99539.19;5113540;28;20206;-79
2022/01/10 07:33:51;;;;;;;28.17;13.88;;;;;;;0.52;100.00;99540.44;5098368;28;20230;-79
2022/01/10 07:36:18;;;;;;;25.33;12.82;;;;;;;0.73;100.00;99554.19;5092820;28;20193;-79
2022/01/10 07:38:44;;;;;;;27.02;12.15;;;;;;;1.01;100.00;99552.72;5093329;28;20203;-79
2022/01/10 07:41:11;;;;;;;29.65;12.93;;;;;;;0.98;100.00;99550.16;5093247;28;20227;-79
2022/01/10 07:43:38;;;;;;;26.20;12.30;;;;;;;1.28;100.00;99565.47;5093291;28;20226;-79
2022/01/10 07:46:07;;;;;;;24.10;12.32;;;;;;;0.88;100.00;99558.31;5093383;28;20225;-79
2022/01/10 07:48:37;;;;;;;21.08;11.80;;;;;;;0.73;100.00;99570.97;5092976;28;20322;-79
2022/01/10 07:51:09;;;;;;;16.75;10.98;;;;;;;0.80;100.00;99571.72;5093482;28;20231;-79
2022/01/10 07:53:36;;;;;;;23.98;14.10;;;;;;;0.82;100.00;99583.19;5093231;28;20544;-79
2022/01/10 07:56:03;;;;;;;31.73;12.93;;;;;;;0.97;100.00;99582.88;5093073;28;20283;-79
2022/01/10 07:58:30;;;;;;;27.95;13.80;;;;;;;1.07;100.00;99590.66;5092693;28;20202;-80
2022/01/10 08:00:57;;;;;;;21.73;12.35;;;;;;;1.14;100.00;99602.91;5093292;28;20728;-79
2022/01/10 08:03:26;;;;;;;36.15;13.75;;;;;;;0.96;100.00;99610.28;5093903;28;20197;-79
2022/01/10 08:05:53;;;;;;;20.35;12.68;;;;;;;0.92;100.00;99611.25;5100098;28;20238;-80
2022/01/10 08:08:20;;;;;;;30.65;12.73;;;;;;;0.80;100.00;99614.13;5113218;28;20207;-79
2022/01/10 08:10:46;;;;;;;22.92;11.68;;;;;;;0.88;100.00;99620.16;5113485;28;20234;-79
2022/01/10 08:13:13;;;;;;;24.25;12.38;;;;;;;0.95;100.00;99620.91;5117658;28;20662;-79
2022/01/10 08:15:40;;;;;;;17.50;11.02;;;;;;;1.18;100.00;99628.47;5117763;28;20204;-79
2022/01/10 08:18:08;;;;;;;21.08;12.45;;;;;;;1.07;100.00;99625.13;5117506;28;20245;-80
2022/01/10 08:20:36;;;;;;;28.95;12.77;;;;;;;0.49;100.00;99630.56;5117733;28;20309;-78
2022/01/10 08:23:03;;;;;;;36.75;17.88;;;;;;;0.46;100.00;99641.22;5117522;28;20288;-78
2022/01/10 08:25:30;;;;;;;23.63;14.02;;;;;;;0.51;100.00;99647.31;5117301;28;20202;-78
2022/01/10 08:27:56;;;;;;;29.02;12.55;;;;;;;0.36;100.00;99650.19;5117409;28;20226;-79
2022/01/10 08:30:23;;;;;;;23.25;12.70;;;;;;;0.64;100.00;99648.00;5117254;28;20266;-80
2022/01/10 08:32:51;;;;;;;22.02;12.70;;;;;;;1.06;100.00;99649.88;5112028;28;20229;-78
2022/01/10 08:35:18;;;;;;;27.13;13.18;;;;;;;0.93;100.00;99651.91;5096741;28;20210;-79
2022/01/10 08:37:46;;;;;;;34.42;12.95;;;;;;;1.17;100.00;99656.72;5096923;28;20518;-78
2022/01/10 08:40:14;;;;;;;22.17;13.18;;;;;;;1.46;100.00;99653.50;5096509;28;20242;-78
2022/01/10 08:42:41;;;;;;;22.23;11.30;;;;;;;1.40;100.00;99655.41;5096866;28;20195;-78
2022/01/10 08:45:09;;;;;;;26.20;11.68;;;;;;;1.38;100.00;99668.72;5096841;28;20209;-78
2022/01/10 08:47:37;;;;;;;20.13;11.50;;;;;;;1.54;100.00;99673.72;5096697;28;20645;-78
2022/01/10 08:50:05;;;;;;;23.00;11.20;;;;;;;1.20;100.00;99669.97;5096329;28;20203;-79
2022/01/10 08:52:32;;;;;;;20.77;10.57;;;;;;;1.25;100.00;99677.81;5096720;28;20307;-79
2022/01/10 08:55:00;;;;;;;23.27;11.65;;;;;;;1.36;100.00;99680.28;5096187;28;20275;-79
2022/01/10 08:57:27;;;;;;;21.33;11.32;;;;;;;0.87;100.00;99686.47;5096536;28;20196;-79
2022/01/10 08:59:54;;;;;;;21.23;10.65;;;;;;;0.99;100.00;99687.13;5096408;28;20200;-79
2022/01/10 09:02:21;;;;;;;19.67;11.18;;;;;;;0.94;100.00;99698.72;5096181;28;20247;-79
2022/01/10 09:04:47;;;;;;;22.75;11.70;;;;;;;1.17;100.00;99698.31;5111225;28;20287;-79
2022/01/10 09:07:14;;;;;;;21.55;12.20;;;;;;;1.11;100.00;99703.72;5116913;28;20708;-79
2022/01/10 09:09:42;;;;;;;24.85;12.23;;;;;;;1.21;100.00;99707.97;5116790;28;20222;-79
2022/01/10 09:12:10;;;;;;;25.20;11.70;;;;;;;1.17;100.00;99709.78;5115857;28;20281;-79
2022/01/10 09:14:37;;;;;;;24.38;13.15;;;;;;;1.51;100.00;99711.81;5116623;28;20621;-79
2022/01/10 09:17:04;;;;;;;17.73;12.55;;;;;;;1.87;100.00;99706.66;5116742;28;20275;-79
2022/01/10 09:19:31;;;;;;;20.52;12.10;;;;;;;2.07;100.00;99711.56;5116672;28;20293;-78
2022/01/10 09:21:58;;;;;;;19.77;11.70;;;;;;;1.86;100.00;99711.09;5116208;28;20376;-78
2022/01/10 09:24:25;;;;;;;19.52;10.60;;;;;;;1.97;100.00;99717.97;5115463;28;20200;-78
2022/01/10 09:26:52;;;;;;;18.70;11.30;;;;;;;1.79;100.00;99725.41;5116640;28;20209;-77
2022/01/10 09:29:20;;;;;;;21.70;11.20;;;;;;;1.94;100.00;99728.66;5116347;28;20278;-77
2022/01/10 09:31:47;;;;;;;19.60;12.40;;;;;;;2.24;100.00;99728.00;5116312;28;20264;-79
2022/01/10 09:34:13;;;;;;;16.58;11.68;;;;;;;2.22;100.00;99729.81;5109432;28;20210;-79
2022/01/10 09:36:40;;;;;;;26.15;13.32;;;;;;;1.87;100.00;99730.56;5095542;28;20273;-78
2022/01/10 09:39:08;;;;;;;22.63;13.00;;;;;;;1.90;100.00;99729.63;5095774;28;20204;-78
2022/01/10 09:41:35;;;;;;;25.10;12.60;;;;;;;2.03;100.00;99739.94;5095225;28;20212;-78
2022/01/10 09:44:04;;;;;;;19.25;11.98;;;;;;;2.24;100.00;99738.63;5095316;28;20300;-79
2022/01/10 09:46:32;;;;;;;22.48;12.30;;;;;;;2.24;100.00;99749.25;5096003;28;20200;-79
2022/01/10 09:49:00;;;;;;;19.65;11.75;;;;;;;1.73;100.00;99752.06;5095934;28;20422;-78
2022/01/10 09:51:28;;;;;;;21.48;13.00;;;;;;;1.89;100.00;99763.28;5095537;28;20193;-80
2022/01/10 09:53:55;;;;;;;20.80;11.65;;;;;;;1.98;100.00;99764.88;5095458;28;20196;-79
2022/01/10 09:56:22;;;;;;;23.75;12.65;;;;;;;1.98;100.00;99771.03;5095320;28;20192;-79
2022/01/10 09:58:50;;;;;;;25.20;12.90;;;;;;;1.94;100.00;99776.44;5095493;28;20231;-79
2022/01/10 10:01:18;;;;;;;21.50;11.90;;;;;;;1.76;100.00;99778.56;5095159;28;20262;-79
2022/01/10 10:03:47;;;;;;;23.10;13.95;;;;;;;2.00;100.00;99784.31;5095837;28;20241;-78
2022/01/10 10:06:15;;;;;;;17.45;12.05;;;;;;;2.04;100.00;99778.91;5111319;28;20199;-79
2022/01/10 10:08:43;;;;;;;22.90;13.52;;;;;;;2.11;100.00;99777.00;5115410;28;20214;-79
2022/01/10 10:11:10;;;;;;;27.33;14.65;;;;;;;2.08;100.00;99785.00;5115391;28;20295;-78
2022/01/10 10:13:43;;;;;;;25.05;12.95;;;;;;;2.07;100.00;99785.94;5115354;28;20200;-79
2022/01/10 10:16:14;;;;;;;21.40;12.95;;;;;;;2.19;100.00;99785.66;5115193;28;20232;-78
2022/01/10 10:18:42;;;;;;;22.30;13.00;;;;;;;2.45;100.00;99792.22;5115044;28;20194;-80
2022/01/10 10:21:13;;;;;;;23.33;13.45;;;;;;;2.41;100.00;99804.69;5115073;28;20204;-78
2022/01/10 10:23:46;;;;;;;29.58;13.73;;;;;;;2.18;100.00;99799.88;5108054;28;20313;-77
2022/01/10 10:26:16;;;;;;;25.65;13.52;;;;;;;2.33;100.00;99809.31;5114936;28;20187;-78
2022/01/10 10:28:45;;;;;;;28.42;14.32;;;;;;;2.29;100.00;99803.16;5114312;28;20569;-79
2022/01/10 10:31:12;;;;;;;25.13;14.23;;;;;;;2.21;100.00;99810.41;5115034;28;20192;-78
2022/01/10 10:33:47;;;;;;;22.50;14.40;;;;;;;2.27;100.00;99815.59;5114838;28;20231;-78
2022/01/10 10:36:15;;;;;;;24.30;14.07;;;;;;;2.50;100.00;99808.94;5102597;28;20200;-76
2022/01/10 10:38:42;;;;;;;22.17;14.43;;;;;;;2.45;100.00;99813.47;5101698;28;20196;-79
2022/01/10 10:41:09;;;;;;;22.60;12.80;;;;;;;2.56;100.00;99819.44;5115469;27;20456;-78
2022/01/10 10:43:38;;;;;;;20.20;12.20;;;;;;;2.23;100.00;99826.34;5124887;27;20604;-80
2022/01/10 10:46:11;;;;;;;18.40;10.75;;;;;;;2.12;100.00;99837.16;5135281;27;20585;-76
2022/01/10 10:48:39;;;;;;;20.75;11.95;;;;;;;2.14;100.00;99829.19;5130899;27;20223;-78
2022/01/10 10:51:06;;;;;;;25.75;13.98;;;;;;;2.32;100.00;99842.09;5113842;28;20199;-79
2022/01/10 10:53:34;;;;;;;21.95;13.25;;;;;;;2.37;100.00;99842.00;5113552;28;20241;-78
2022/01/10 10:56:03;;;;;;;24.98;15.73;;;;;;;2.52;100.00;99846.13;5114554;28;20208;-78
2022/01/10 10:58:31;;;;;;;26.65;14.65;;;;;;;2.88;100.00;99849.75;5114114;28;20245;-78
2022/01/10 11:00:59;;;;;;;24.52;13.35;;;;;;;2.99;100.00;99852.16;5113616;28;20203;-78
2022/01/10 11:03:26;;;;;;;26.52;14.52;;;;;;;3.05;100.00;99855.56;5112444;28;20216;-78
2022/01/10 11:05:54;;;;;;;23.45;13.73;;;;;;;2.78;100.00;99859.72;5107770;28;20231;-79
2022/01/10 11:08:22;;;;;;;24.33;14.43;;;;;;;2.90;100.00;99874.53;5093134;28;20274;-79
2022/01/10 11:10:50;;;;;;;32.40;15.98;;;;;;;2.86;100.00;99872.84;5112658;28;20264;-78
2022/01/10 11:13:20;;;;;;;26.58;14.23;;;;;;;2.61;100.00;99878.69;5112771;28;20215;-78
2022/01/10 11:15:47;;;;;;;27.00;15.02;;;;;;;2.56;100.00;99885.91;5112073;28;20548;-80
2022/01/10 11:18:14;;;;;;;32.35;15.52;;;;;;;2.72;100.00;99884.66;5112489;28;20188;-79
2022/01/10 11:20:45;;;;;;;30.45;15.15;;;;;;;2.98;100.00;99891.19;5112472;28;20250;-79
2022/01/10 11:23:12;;;;;;;29.05;15.55;;;;;;;2.90;100.00;99887.84;5112269;28;20661;-80